sensor_id;sensor_type;location;lat;lon;timestamp;pressure;altitude;pressure_sealevel;temperature;humidity
86359;BME280;77014;48.070;20.776;2024-03-23T00:52:28;99941.58;;;9.27;72.72
86359;BME280;77014;48.070;20.776;2024-03-23T00:54:04;99943.83;;;9.26;72.45
86359;BME280;77014;48.070;20.776;2024-03-23T00:54:35;99945.72;;;9.26;72.50
86359;BME280;77014;48.070;20.776;2024-03-23T00:55:06;99947.02;;;9.26;72.49
86359;BME280;77014;48.070;20.776;2024-03-23T00:55:38;99947.85;;;9.26;72.42
86359;BME280;77014;48.070;20.776;2024-03-23T00:56:09;99948.74;;;9.25;72.43
86359;BME280;77014;48.070;20.776;2024-03-23T00:56:40;99948.45;;;9.25;72.46
86359;BME280;77014;48.070;20.776;2024-03-23T00:57:11;99948.24;;;9.25;72.62
86359;BME280;77014;48.070;20.776;2024-03-23T00:57:43;99947.44;;;9.24;72.69
86359;BME280;77014;48.070;20.776;2024-03-23T00:58:14;99946.28;;;9.24;72.75
86359;BME280;77014;48.070;20.776;2024-03-23T00:58:45;99945.24;;;9.23;72.90
86359;BME280;77014;48.070;20.776;2024-03-23T00:59:16;99944.54;;;9.22;73.05
86359;BME280;77014;48.070;20.776;2024-03-23T00:59:47;99943.82;;;9.22;73.20
86359;BME280;77014;48.070;20.776;2024-03-23T01:00:18;99943.66;;;9.20;73.16
86359;BME280;77014;48.070;20.776;2024-03-23T01:00:49;99943.48;;;9.19;73.22
86359;BME280;77014;48.070;20.776;2024-03-23T01:01:20;99943.20;;;9.19;73.23
86359;BME280;77014;48.070;20.776;2024-03-23T01:01:51;99943.34;;;9.19;73.24
86359;BME280;77014;48.070;20.776;2024-03-23T01:02:22;99942.89;;;9.18;73.18
86359;BME280;77014;48.070;20.776;2024-03-23T01:02:53;99943.16;;;9.18;73.16
86359;BME280;77014;48.070;20.776;2024-03-23T01:03:24;99943.07;;;9.18;73.11
86359;BME280;77014;48.070;20.776;2024-03-23T01:03:55;99942.95;;;9.18;73.06
86359;BME280;77014;48.070;20.776;2024-03-23T01:04:27;99942.42;;;9.18;73.16
86359;BME280;77014;48.070;20.776;2024-03-23T01:04:58;99942.17;;;9.18;73.37
86359;BME280;77014;48.070;20.776;2024-03-23T01:05:29;99941.70;;;9.18;73.50
86359;BME280;77014;48.070;20.776;2024-03-23T01:06:02;99941.06;;;9.18;73.48
86359;BME280;77014;48.070;20.776;2024-03-23T01:06:34;99940.30;;;9.18;73.46
86359;BME280;77014;48.070;20.776;2024-03-23T01:07:05;99939.14;;;9.18;73.43
86359;BME280;77014;48.070;20.776;2024-03-23T01:07:36;99938.59;;;9.18;73.50
86359;BME280;77014;48.070;20.776;2024-03-23T01:08:07;99937.63;;;9.18;73.61
86359;BME280;77014;48.070;20.776;2024-03-23T01:08:38;99937.38;;;9.18;73.71
86359;BME280;77014;48.070;20.776;2024-03-23T01:09:09;99936.71;;;9.18;73.64
86359;BME280;77014;48.070;20.776;2024-03-23T01:09:41;99936.91;;;9.18;73.70
86359;BME280;77014;48.070;20.776;2024-03-23T01:10:12;99936.76;;;9.18;73.67
86359;BME280;77014;48.070;20.776;2024-03-23T01:10:54;99936.27;;;9.18;73.77
86359;BME280;77014;48.070;20.776;2024-03-23T01:11:25;99935.45;;;9.19;73.61
86359;BME280;77014;48.070;20.776;2024-03-23T01:11:57;99934.28;;;9.19;73.54
86359;BME280;77014;48.070;20.776;2024-03-23T01:12:28;99933.84;;;9.19;73.47
86359;BME280;77014;48.070;20.776;2024-03-23T01:13:00;99933.24;;;9.19;73.49
86359;BME280;77014;48.070;20.776;2024-03-23T01:13:31;99932.70;;;9.19;73.45
86359;BME280;77014;48.070;20.776;2024-03-23T01:14:03;99932.42;;;9.19;73.35
86359;BME280;77014;48.070;20.776;2024-03-23T01:14:34;99932.40;;;9.19;73.37
86359;BME280;77014;48.070;20.776;2024-03-23T01:15:06;99932.45;;;9.19;73.27
86359;BME280;77014;48.070;20.776;2024-03-23T01:15:38;99932.63;;;9.19;73.25
86359;BME280;77014;48.070;20.776;2024-03-23T01:16:09;99932.66;;;9.19;73.27
86359;BME280;77014;48.070;20.776;2024-03-23T01:16:40;99933.03;;;9.19;73.27
86359;BME280;77014;48.070;20.776;2024-03-23T01:17:11;99932.70;;;9.19;73.23
86359;BME280;77014;48.070;20.776;2024-03-23T01:17:42;99932.94;;;9.19;73.22
86359;BME280;77014;48.070;20.776;2024-03-23T01:18:13;99932.30;;;9.19;73.28
86359;BME280;77014;48.070;20.776;2024-03-23T01:18:44;99931.96;;;9.19;73.31
86359;BME280;77014;48.070;20.776;2024-03-23T01:19:15;99931.07;;;9.19;73.41
86359;BME280;77014;48.070;20.776;2024-03-23T01:19:46;99930.10;;;9.19;73.47
86359;BME280;77014;48.070;20.776;2024-03-23T01:20:17;99929.15;;;9.18;73.47
86359;BME280;77014;48.070;20.776;2024-03-23T01:20:48;99928.57;;;9.18;73.44
86359;BME280;77014;48.070;20.776;2024-03-23T01:21:19;99927.57;;;9.18;73.62
86359;BME280;77014;48.070;20.776;2024-03-23T01:21:50;99926.86;;;9.18;73.56
86359;BME280;77014;48.070;20.776;2024-03-23T01:22:21;99925.75;;;9.18;73.53
86359;BME280;77014;48.070;20.776;2024-03-23T01:22:52;99925.32;;;9.18;73.55
86359;BME280;77014;48.070;20.776;2024-03-23T01:23:23;99924.87;;;9.19;73.53
86359;BME280;77014;48.070;20.776;2024-03-23T01:23:54;99924.53;;;9.19;73.58
86359;BME280;77014;48.070;20.776;2024-03-23T01:24:25;99924.16;;;9.19;73.63
86359;BME280;77014;48.070;20.776;2024-03-23T01:24:56;99923.77;;;9.19;73.66
86359;BME280;77014;48.070;20.776;2024-03-23T01:25:28;99923.62;;;9.19;73.78
86359;BME280;77014;48.070;20.776;2024-03-23T01:25:59;99922.95;;;9.19;74.01
86359;BME280;77014;48.070;20.776;2024-03-23T01:26:30;99922.59;;;9.20;74.14
86359;BME280;77014;48.070;20.776;2024-03-23T01:27:01;99922.52;;;9.20;74.10
86359;BME280;77014;48.070;20.776;2024-03-23T01:27:32;99922.58;;;9.20;73.86
86359;BME280;77014;48.070;20.776;2024-03-23T01:28:04;99923.02;;;9.20;73.84
86359;BME280;77014;48.070;20.776;2024-03-23T01:28:35;99923.17;;;9.20;73.74
86359;BME280;77014;48.070;20.776;2024-03-23T01:29:06;99923.47;;;9.19;73.80
86359;BME280;77014;48.070;20.776;2024-03-23T01:29:37;99923.62;;;9.19;73.76
86359;BME280;77014;48.070;20.776;2024-03-23T01:30:08;99924.08;;;9.19;73.76
86359;BME280;77014;48.070;20.776;2024-03-23T01:30:39;99924.27;;;9.19;73.82
86359;BME280;77014;48.070;20.776;2024-03-23T01:31:11;99925.29;;;9.20;73.79
86359;BME280;77014;48.070;20.776;2024-03-23T01:31:42;99926.20;;;9.20;73.75
86359;BME280;77014;48.070;20.776;2024-03-23T01:32:13;99926.59;;;9.21;73.65
86359;BME280;77014;48.070;20.776;2024-03-23T01:32:45;99927.32;;;9.21;73.66
86359;BME280;77014;48.070;20.776;2024-03-23T01:33:16;99927.30;;;9.22;73.66
86359;BME280;77014;48.070;20.776;2024-03-23T01:33:47;99927.34;;;9.22;73.64
86359;BME280;77014;48.070;20.776;2024-03-23T01:34:18;99927.82;;;9.22;73.64
86359;BME280;77014;48.070;20.776;2024-03-23T01:34:50;99928.01;;;9.22;73.60
86359;BME280;77014;48.070;20.776;2024-03-23T01:35:21;99928.16;;;9.23;73.53
86359;BME280;77014;48.070;20.776;2024-03-23T01:35:52;99927.71;;;9.23;73.47
86359;BME280;77014;48.070;20.776;2024-03-23T01:36:23;99926.99;;;9.23;73.51
86359;BME280;77014;48.070;20.776;2024-03-23T01:36:54;99925.56;;;9.24;73.55
86359;BME280;77014;48.070;20.776;2024-03-23T01:37:25;99924.50;;;9.24;73.57
86359;BME280;77014;48.070;20.776;2024-03-23T01:37:56;99923.06;;;9.24;73.58
86359;BME280;77014;48.070;20.776;2024-03-23T01:38:27;99922.13;;;9.24;73.81
86359;BME280;77014;48.070;20.776;2024-03-23T01:38:58;99921.92;;;9.25;73.83
86359;BME280;77014;48.070;20.776;2024-03-23T01:39:29;99921.32;;;9.25;73.85
86359;BME280;77014;48.070;20.776;2024-03-23T01:40:00;99920.63;;;9.26;73.88
86359;BME280;77014;48.070;20.776;2024-03-23T01:40:31;99919.84;;;9.26;73.68
86359;BME280;77014;48.070;20.776;2024-03-23T01:41:03;99918.73;;;9.26;73.43
86359;BME280;77014;48.070;20.776;2024-03-23T01:41:34;99918.37;;;9.26;73.30
86359;BME280;77014;48.070;20.776;2024-03-23T01:42:05;99917.62;;;9.26;73.16
86359;BME280;77014;48.070;20.776;2024-03-23T01:42:36;99917.34;;;9.27;73.13
86359;BME280;77014;48.070;20.776;2024-03-23T01:43:08;99917.33;;;9.27;73.05
86359;BME280;77014;48.070;20.776;2024-03-23T01:43:39;99916.77;;;9.27;73.06
86359;BME280;77014;48.070;20.776;2024-03-23T01:44:10;99916.30;;;9.27;73.03
86359;BME280;77014;48.070;20.776;2024-03-23T01:44:41;99915.70;;;9.27;73.06
86359;BME280;77014;48.070;20.776;2024-03-23T01:45:12;99915.52;;;9.27;73.12
86359;BME280;77014;48.070;20.776;2024-03-23T01:45:44;99915.45;;;9.28;73.29
86359;BME280;77014;48.070;20.776;2024-03-23T01:46:15;99915.59;;;9.29;73.33
86359;BME280;77014;48.070;20.776;2024-03-23T01:46:46;99915.77;;;9.29;73.28
86359;BME280;77014;48.070;20.776;2024-03-23T01:47:17;99915.76;;;9.30;73.27
86359;BME280;77014;48.070;20.776;2024-03-23T01:47:52;99915.97;;;9.30;73.27
86359;BME280;77014;48.070;20.776;2024-03-23T01:48:23;99916.30;;;9.30;73.36
86359;BME280;77014;48.070;20.776;2024-03-23T01:48:55;99917.05;;;9.30;73.54
86359;BME280;77014;48.070;20.776;2024-03-23T01:49:26;99917.82;;;9.30;73.52
86359;BME280;77014;48.070;20.776;2024-03-23T01:49:57;99917.95;;;9.30;73.36
86359;BME280;77014;48.070;20.776;2024-03-23T01:50:28;99917.34;;;9.30;73.25
86359;BME280;77014;48.070;20.776;2024-03-23T01:51:04;99915.75;;;9.31;73.14
86359;BME280;77014;48.070;20.776;2024-03-23T01:51:37;99914.39;;;9.31;73.19
86359;BME280;77014;48.070;20.776;2024-03-23T01:52:08;99913.62;;;9.31;73.40
86359;BME280;77014;48.070;20.776;2024-03-23T01:52:39;99913.09;;;9.31;73.51
86359;BME280;77014;48.070;20.776;2024-03-23T01:53:10;99912.94;;;9.31;73.63
86359;BME280;77014;48.070;20.776;2024-03-23T01:53:41;99913.23;;;9.31;73.85
86359;BME280;77014;48.070;20.776;2024-03-23T01:54:13;99913.45;;;9.31;73.74
86359;BME280;77014;48.070;20.776;2024-03-23T01:54:44;99913.23;;;9.32;73.77
86359;BME280;77014;48.070;20.776;2024-03-23T01:55:15;99913.58;;;9.32;73.79
86359;BME280;77014;48.070;20.776;2024-03-23T01:55:46;99912.93;;;9.32;73.96
86359;BME280;77014;48.070;20.776;2024-03-23T01:56:17;99911.97;;;9.33;73.92
86359;BME280;77014;48.070;20.776;2024-03-23T01:56:48;99911.27;;;9.34;73.80
86359;BME280;77014;48.070;20.776;2024-03-23T01:57:20;99910.28;;;9.34;73.66
86359;BME280;77014;48.070;20.776;2024-03-23T01:57:51;99908.80;;;9.34;73.60
86359;BME280;77014;48.070;20.776;2024-03-23T01:58:23;99907.94;;;9.34;73.58
86359;BME280;77014;48.070;20.776;2024-03-23T01:58:53;99906.74;;;9.35;73.57
86359;BME280;77014;48.070;20.776;2024-03-23T01:59:24;99905.54;;;9.35;73.53
86359;BME280;77014;48.070;20.776;2024-03-23T01:59:56;99904.79;;;9.35;73.51
86359;BME280;77014;48.070;20.776;2024-03-23T02:00:27;99904.35;;;9.35;73.59
86359;BME280;77014;48.070;20.776;2024-03-23T02:00:58;99904.75;;;9.35;73.58
86359;BME280;77014;48.070;20.776;2024-03-23T02:01:29;99904.89;;;9.35;73.54
86359;BME280;77014;48.070;20.776;2024-03-23T02:02:01;99905.36;;;9.36;73.74
86359;BME280;77014;48.070;20.776;2024-03-23T02:02:32;99906.52;;;9.36;73.74
86359;BME280;77014;48.070;20.776;2024-03-23T02:03:22;99907.59;;;9.36;73.74
86359;BME280;77014;48.070;20.776;2024-03-23T02:03:53;99908.56;;;9.37;73.60
86359;BME280;77014;48.070;20.776;2024-03-23T02:04:24;99908.52;;;9.38;73.64
86359;BME280;77014;48.070;20.776;2024-03-23T02:04:55;99908.25;;;9.38;73.54
86359;BME280;77014;48.070;20.776;2024-03-23T02:05:26;99908.45;;;9.38;73.48
86359;BME280;77014;48.070;20.776;2024-03-23T02:05:58;99908.55;;;9.38;73.49
86359;BME280;77014;48.070;20.776;2024-03-23T02:06:29;99908.85;;;9.38;73.51
86359;BME280;77014;48.070;20.776;2024-03-23T02:07:00;99908.89;;;9.38;73.47
86359;BME280;77014;48.070;20.776;2024-03-23T02:07:31;99909.29;;;9.38;73.48
86359;BME280;77014;48.070;20.776;2024-03-23T02:08:02;99909.20;;;9.38;73.46
86359;BME280;77014;48.070;20.776;2024-03-23T02:08:34;99909.13;;;9.38;73.41
86359;BME280;77014;48.070;20.776;2024-03-23T02:09:05;99908.64;;;9.38;73.36
86359;BME280;77014;48.070;20.776;2024-03-23T02:09:36;99907.70;;;9.38;73.32
86359;BME280;77014;48.070;20.776;2024-03-23T02:10:08;99906.54;;;9.37;73.24
86359;BME280;77014;48.070;20.776;2024-03-23T02:10:40;99905.67;;;9.37;73.32
86359;BME280;77014;48.070;20.776;2024-03-23T02:11:11;99905.49;;;9.37;73.36
86359;BME280;77014;48.070;20.776;2024-03-23T02:11:42;99905.59;;;9.37;73.39
86359;BME280;77014;48.070;20.776;2024-03-23T02:12:13;99906.22;;;9.37;73.18
86359;BME280;77014;48.070;20.776;2024-03-23T02:13:40;99908.55;;;;
86359;BME280;77014;48.070;20.776;2024-03-23T02:14:11;99908.96;;;14.01;52.98
86359;BME280;77014;48.070;20.776;2024-03-23T02:14:42;99909.06;;;10.55;63.69
86359;BME280;77014;48.070;20.776;2024-03-23T02:15:13;99908.92;;;9.73;70.25
86359;BME280;77014;48.070;20.776;2024-03-23T02:15:44;99908.78;;;9.59;71.51
86359;BME280;77014;48.070;20.776;2024-03-23T02:16:15;99908.42;;;9.59;71.79
86359;BME280;77014;48.070;20.776;2024-03-23T02:16:46;99908.16;;;9.69;71.56
86359;BME280;77014;48.070;20.776;2024-03-23T02:17:17;99907.73;;;9.78;71.33
86359;BME280;77014;48.070;20.776;2024-03-23T02:17:48;99906.41;;;9.78;71.29
86359;BME280;77014;48.070;20.776;2024-03-23T02:18:19;99905.29;;;9.77;71.27
86359;BME280;77014;48.070;20.776;2024-03-23T02:18:50;99904.04;;;9.73;71.39
86359;BME280;77014;48.070;20.776;2024-03-23T02:19:21;99903.15;;;9.69;71.62
86359;BME280;77014;48.070;20.776;2024-03-23T02:19:52;99901.80;;;9.68;71.68
86359;BME280;77014;48.070;20.776;2024-03-23T02:20:23;99900.92;;;9.69;71.67
86359;BME280;77014;48.070;20.776;2024-03-23T02:20:54;99900.56;;;9.71;71.63
86359;BME280;77014;48.070;20.776;2024-03-23T02:21:25;99900.66;;;9.73;71.64
86359;BME280;77014;48.070;20.776;2024-03-23T02:21:58;99901.16;;;9.74;71.60
86359;BME280;77014;48.070;20.776;2024-03-23T02:22:39;99902.28;;;9.74;71.60
86359;BME280;77014;48.070;20.776;2024-03-23T02:23:16;99903.03;;;9.74;71.55
86359;BME280;77014;48.070;20.776;2024-03-23T02:23:47;99903.01;;;9.74;71.57
86359;BME280;77014;48.070;20.776;2024-03-23T02:24:18;99901.80;;;9.74;71.58
86359;BME280;77014;48.070;20.776;2024-03-23T02:24:49;99900.08;;;9.74;71.46
86359;BME280;77014;48.070;20.776;2024-03-23T02:25:20;99898.19;;;9.74;71.41
86359;BME280;77014;48.070;20.776;2024-03-23T02:25:51;99896.73;;;9.74;71.34
86359;BME280;77014;48.070;20.776;2024-03-23T02:26:23;99895.71;;;9.73;71.31
86359;BME280;77014;48.070;20.776;2024-03-23T02:26:54;99895.70;;;9.73;71.41
86359;BME280;77014;48.070;20.776;2024-03-23T02:27:25;99895.92;;;9.73;71.40
86359;BME280;77014;48.070;20.776;2024-03-23T02:27:56;99896.89;;;9.73;71.33
86359;BME280;77014;48.070;20.776;2024-03-23T02:28:29;99898.05;;;9.72;71.35
86359;BME280;77014;48.070;20.776;2024-03-23T02:29:00;99898.45;;;9.72;71.59
86359;BME280;77014;48.070;20.776;2024-03-23T02:29:31;99898.78;;;9.72;71.73
86359;BME280;77014;48.070;20.776;2024-03-23T02:30:02;99898.26;;;9.72;71.76
86359;BME280;77014;48.070;20.776;2024-03-23T02:30:33;99897.84;;;9.71;71.93
86359;BME280;77014;48.070;20.776;2024-03-23T02:31:04;99897.04;;;9.70;72.02
86359;BME280;77014;48.070;20.776;2024-03-23T02:31:36;99896.38;;;9.69;71.97
86359;BME280;77014;48.070;20.776;2024-03-23T02:32:07;99896.16;;;9.68;71.87
86359;BME280;77014;48.070;20.776;2024-03-23T02:32:39;99895.73;;;9.67;71.69
86359;BME280;77014;48.070;20.776;2024-03-23T02:33:10;99895.45;;;9.65;71.75
86359;BME280;77014;48.070;20.776;2024-03-23T02:33:41;99895.11;;;9.64;71.82
86359;BME280;77014;48.070;20.776;2024-03-23T02:34:12;99894.41;;;9.63;71.88
86359;BME280;77014;48.070;20.776;2024-03-23T02:34:43;99894.72;;;9.62;71.98
86359;BME280;77014;48.070;20.776;2024-03-23T02:35:14;99894.73;;;9.61;72.10
86359;BME280;77014;48.070;20.776;2024-03-23T02:35:45;99895.52;;;9.60;72.06
86359;BME280;77014;48.070;20.776;2024-03-23T02:36:17;99896.41;;;9.59;72.03
86359;BME280;77014;48.070;20.776;2024-03-23T02:36:48;99896.88;;;9.59;71.85
86359;BME280;77014;48.070;20.776;2024-03-23T02:37:19;99897.49;;;9.59;71.84
86359;BME280;77014;48.070;20.776;2024-03-23T02:37:50;99897.70;;;9.58;71.81
86359;BME280;77014;48.070;20.776;2024-03-23T02:38:20;99897.93;;;9.57;71.72
86359;BME280;77014;48.070;20.776;2024-03-23T02:38:51;99897.30;;;9.57;71.67
86359;BME280;77014;48.070;20.776;2024-03-23T02:39:22;99896.98;;;9.56;71.42
86359;BME280;77014;48.070;20.776;2024-03-23T02:39:53;99896.55;;;9.55;71.46
86359;BME280;77014;48.070;20.776;2024-03-23T02:40:24;99896.09;;;9.54;71.53
86359;BME280;77014;48.070;20.776;2024-03-23T02:41:02;99895.49;;;9.53;71.56
86359;BME280;77014;48.070;20.776;2024-03-23T02:41:33;99895.13;;;9.52;71.59
86359;BME280;77014;48.070;20.776;2024-03-23T02:42:04;99894.92;;;9.50;71.64
86359;BME280;77014;48.070;20.776;2024-03-23T02:42:35;99895.13;;;9.49;71.66
86359;BME280;77014;48.070;20.776;2024-03-23T02:43:06;99895.45;;;9.47;71.75
86359;BME280;77014;48.070;20.776;2024-03-23T02:43:37;99895.55;;;9.46;71.81
86359;BME280;77014;48.070;20.776;2024-03-23T02:44:08;99895.62;;;9.45;71.87
86359;BME280;77014;48.070;20.776;2024-03-23T02:44:42;99895.89;;;9.44;71.87
86359;BME280;77014;48.070;20.776;2024-03-23T02:45:13;99895.58;;;9.43;71.88
86359;BME280;77014;48.070;20.776;2024-03-23T02:45:44;99895.11;;;9.43;71.75
86359;BME280;77014;48.070;20.776;2024-03-23T02:46:14;99894.17;;;9.41;71.86
86359;BME280;77014;48.070;20.776;2024-03-23T02:46:45;99892.86;;;9.40;71.88
86359;BME280;77014;48.070;20.776;2024-03-23T02:47:16;99891.70;;;9.39;71.95
86359;BME280;77014;48.070;20.776;2024-03-23T02:47:47;99890.88;;;9.39;72.07
86359;BME280;77014;48.070;20.776;2024-03-23T02:48:22;99890.67;;;9.38;72.27
86359;BME280;77014;48.070;20.776;2024-03-23T02:48:54;99891.23;;;9.38;72.36
86359;BME280;77014;48.070;20.776;2024-03-23T02:49:25;99892.33;;;9.37;72.37
86359;BME280;77014;48.070;20.776;2024-03-23T02:49:56;99892.41;;;9.37;72.36
86359;BME280;77014;48.070;20.776;2024-03-23T02:50:27;99892.18;;;9.37;72.31
86359;BME280;77014;48.070;20.776;2024-03-23T02:50:58;99891.27;;;9.36;72.30
86359;BME280;77014;48.070;20.776;2024-03-23T02:51:29;99889.88;;;9.36;72.16
86359;BME280;77014;48.070;20.776;2024-03-23T02:52:00;99888.31;;;9.35;72.30
86359;BME280;77014;48.070;20.776;2024-03-23T02:52:31;99886.99;;;9.34;72.38
86359;BME280;77014;48.070;20.776;2024-03-23T02:53:02;99885.39;;;9.34;72.31
86359;BME280;77014;48.070;20.776;2024-03-23T02:53:32;99884.22;;;9.34;72.33
86359;BME280;77014;48.070;20.776;2024-03-23T02:54:03;99883.66;;;9.33;72.29
86359;BME280;77014;48.070;20.776;2024-03-23T02:54:35;99883.19;;;9.33;72.29
86359;BME280;77014;48.070;20.776;2024-03-23T02:55:06;99883.87;;;9.32;72.31
86359;BME280;77014;48.070;20.776;2024-03-23T02:55:37;99883.99;;;9.32;72.33
86359;BME280;77014;48.070;20.776;2024-03-23T02:56:07;99884.08;;;9.31;72.37
86359;BME280;77014;48.070;20.776;2024-03-23T02:56:39;99883.89;;;9.31;72.38
86359;BME280;77014;48.070;20.776;2024-03-23T02:57:10;99883.73;;;9.30;72.10
86359;BME280;77014;48.070;20.776;2024-03-23T02:57:42;99883.34;;;9.29;71.97
86359;BME280;77014;48.070;20.776;2024-03-23T02:58:13;99882.49;;;9.28;72.16
86359;BME280;77014;48.070;20.776;2024-03-23T02:58:45;99881.06;;;9.28;72.18
86359;BME280;77014;48.070;20.776;2024-03-23T02:59:16;99880.27;;;9.27;72.14
86359;BME280;77014;48.070;20.776;2024-03-23T02:59:47;99879.06;;;9.27;72.19
86359;BME280;77014;48.070;20.776;2024-03-23T03:00:18;99877.84;;;9.26;72.22
86359;BME280;77014;48.070;20.776;2024-03-23T03:00:49;99876.93;;;9.25;72.27
86359;BME280;77014;48.070;20.776;2024-03-23T03:01:20;99876.18;;;9.25;72.25
86359;BME280;77014;48.070;20.776;2024-03-23T03:01:51;99876.12;;;9.24;72.27
86359;BME280;77014;48.070;20.776;2024-03-23T03:02:22;99876.19;;;9.23;72.44
86359;BME280;77014;48.070;20.776;2024-03-23T03:02:53;99876.27;;;9.23;72.57
86359;BME280;77014;48.070;20.776;2024-03-23T03:03:24;99876.66;;;9.23;72.64
86359;BME280;77014;48.070;20.776;2024-03-23T03:03:55;99876.45;;;9.23;72.57
86359;BME280;77014;48.070;20.776;2024-03-23T03:04:26;99876.12;;;9.23;72.73
86359;BME280;77014;48.070;20.776;2024-03-23T03:04:57;99874.92;;;9.22;72.91
86359;BME280;77014;48.070;20.776;2024-03-23T03:05:28;99874.67;;;9.21;72.91
86359;BME280;77014;48.070;20.776;2024-03-23T03:05:58;99874.87;;;9.20;72.84
86359;BME280;77014;48.070;20.776;2024-03-23T03:06:30;99875.51;;;9.20;72.72
86359;BME280;77014;48.070;20.776;2024-03-23T03:07:01;99876.55;;;9.20;72.76
86359;BME280;77014;48.070;20.776;2024-03-23T03:07:32;99877.29;;;9.19;72.88
86359;BME280;77014;48.070;20.776;2024-03-23T03:08:03;99878.19;;;9.19;72.85
86359;BME280;77014;48.070;20.776;2024-03-23T03:08:35;99878.44;;;9.19;73.01
86359;BME280;77014;48.070;20.776;2024-03-23T03:09:05;99878.38;;;9.19;73.22
86359;BME280;77014;48.070;20.776;2024-03-23T03:09:36;99878.13;;;9.19;73.37
86359;BME280;77014;48.070;20.776;2024-03-23T03:10:09;99877.16;;;9.19;73.36
86359;BME280;77014;48.070;20.776;2024-03-23T03:10:41;99875.77;;;9.18;73.33
86359;BME280;77014;48.070;20.776;2024-03-23T03:11:12;99874.30;;;9.18;73.17
86359;BME280;77014;48.070;20.776;2024-03-23T03:11:43;99872.51;;;9.18;73.07
86359;BME280;77014;48.070;20.776;2024-03-23T03:12:14;99870.45;;;9.18;73.03
86359;BME280;77014;48.070;20.776;2024-03-23T03:12:45;99868.73;;;9.18;73.07
86359;BME280;77014;48.070;20.776;2024-03-23T03:13:16;99867.12;;;9.17;73.15
86359;BME280;77014;48.070;20.776;2024-03-23T03:13:47;99866.26;;;9.17;73.25
86359;BME280;77014;48.070;20.776;2024-03-23T03:14:18;99865.71;;;9.18;73.28
86359;BME280;77014;48.070;20.776;2024-03-23T03:14:50;99865.59;;;9.18;73.10
86359;BME280;77014;48.070;20.776;2024-03-23T03:15:21;99865.34;;;9.18;72.97
86359;BME280;77014;48.070;20.776;2024-03-23T03:15:52;99865.36;;;9.18;72.90
86359;BME280;77014;48.070;20.776;2024-03-23T03:16:23;99865.30;;;9.18;72.79
86359;BME280;77014;48.070;20.776;2024-03-23T03:16:54;99864.40;;;9.18;72.68
86359;BME280;77014;48.070;20.776;2024-03-23T03:17:25;99863.09;;;9.18;72.77
86359;BME280;77014;48.070;20.776;2024-03-23T03:17:56;99862.28;;;9.18;72.99
86359;BME280;77014;48.070;20.776;2024-03-23T03:18:27;99862.76;;;9.19;73.05
86359;BME280;77014;48.070;20.776;2024-03-23T03:18:58;99863.48;;;9.18;73.02
86359;BME280;77014;48.070;20.776;2024-03-23T03:19:30;99863.35;;;9.18;73.05
86359;BME280;77014;48.070;20.776;2024-03-23T03:20:01;99862.50;;;9.18;72.98
86359;BME280;77014;48.070;20.776;2024-03-23T03:20:32;99861.93;;;9.18;72.94
86359;BME280;77014;48.070;20.776;2024-03-23T03:21:04;99860.48;;;9.18;72.92
86359;BME280;77014;48.070;20.776;2024-03-23T03:21:36;99858.84;;;9.18;72.84
86359;BME280;77014;48.070;20.776;2024-03-23T03:22:07;99857.52;;;9.18;72.77
86359;BME280;77014;48.070;20.776;2024-03-23T03:22:39;99856.70;;;9.18;72.81
86359;BME280;77014;48.070;20.776;2024-03-23T03:23:10;99856.66;;;9.18;72.98
86359;BME280;77014;48.070;20.776;2024-03-23T03:23:41;99857.81;;;9.18;73.13
86359;BME280;77014;48.070;20.776;2024-03-23T03:24:13;99858.94;;;9.18;73.23
86359;BME280;77014;48.070;20.776;2024-03-23T03:24:44;99860.28;;;9.18;73.17
86359;BME280;77014;48.070;20.776;2024-03-23T03:25:15;99860.08;;;9.18;73.31
86359;BME280;77014;48.070;20.776;2024-03-23T03:25:46;99859.28;;;9.17;73.26
86359;BME280;77014;48.070;20.776;2024-03-23T03:26:17;99858.05;;;9.17;73.24
86359;BME280;77014;48.070;20.776;2024-03-23T03:26:48;99856.95;;;9.17;73.27
86359;BME280;77014;48.070;20.776;2024-03-23T03:27:20;99855.33;;;9.16;73.27
86359;BME280;77014;48.070;20.776;2024-03-23T03:27:51;99854.38;;;9.16;73.13
86359;BME280;77014;48.070;20.776;2024-03-23T03:28:22;99853.16;;;9.16;73.00
86359;BME280;77014;48.070;20.776;2024-03-23T03:28:53;99852.48;;;9.16;73.01
86359;BME280;77014;48.070;20.776;2024-03-23T03:29:24;99851.44;;;9.16;73.05
86359;BME280;77014;48.070;20.776;2024-03-23T03:29:55;99850.90;;;9.16;73.21
86359;BME280;77014;48.070;20.776;2024-03-23T03:30:26;99850.20;;;9.15;73.38
86359;BME280;77014;48.070;20.776;2024-03-23T03:30:57;99850.61;;;9.15;73.63
86359;BME280;77014;48.070;20.776;2024-03-23T03:31:28;99851.71;;;9.15;73.66
86359;BME280;77014;48.070;20.776;2024-03-23T03:31:59;99852.78;;;9.15;73.51
86359;BME280;77014;48.070;20.776;2024-03-23T03:32:30;99853.75;;;9.15;73.40
86359;BME280;77014;48.070;20.776;2024-03-23T03:33:00;99854.39;;;9.15;73.27
86359;BME280;77014;48.070;20.776;2024-03-23T03:33:32;99853.87;;;9.15;73.14
86359;BME280;77014;48.070;20.776;2024-03-23T03:34:03;99852.75;;;9.14;73.19
86359;BME280;77014;48.070;20.776;2024-03-23T03:34:34;99851.63;;;9.13;73.18
86359;BME280;77014;48.070;20.776;2024-03-23T03:35:05;99850.41;;;9.13;73.20
86359;BME280;77014;48.070;20.776;2024-03-23T03:35:36;99849.57;;;9.12;73.24
86359;BME280;77014;48.070;20.776;2024-03-23T03:36:08;99848.22;;;9.12;73.23
86359;BME280;77014;48.070;20.776;2024-03-23T03:36:39;99847.44;;;9.12;73.19
86359;BME280;77014;48.070;20.776;2024-03-23T03:37:10;99847.33;;;9.12;73.09
86359;BME280;77014;48.070;20.776;2024-03-23T03:37:41;99847.57;;;9.11;73.17
86359;BME280;77014;48.070;20.776;2024-03-23T03:38:12;99847.17;;;9.11;73.22
86359;BME280;77014;48.070;20.776;2024-03-23T03:38:43;99845.92;;;9.11;73.14
86359;BME280;77014;48.070;20.776;2024-03-23T03:39:14;99844.99;;;9.11;73.06
86359;BME280;77014;48.070;20.776;2024-03-23T03:39:45;99844.13;;;9.11;73.05
86359;BME280;77014;48.070;20.776;2024-03-23T03:40:16;99843.38;;;9.11;73.01